sensor_id;sensor_type;location;lat;lon;timestamp;P1;durP1;ratioP1;P2;durP2;ratioP2
22579;SDS011;11456;47.030;15.396;2023-10-13T00:00:27;18.42;;;6.85;;
22579;SDS011;11456;47.030;15.396;2023-10-13T00:02:57;15.73;;;6.35;;
22579;SDS011;11456;47.030;15.396;2023-10-13T00:05:30;19.88;;;6.95;;
22579;SDS011;11456;47.030;15.396;2023-10-13T00:08:00;15.63;;;6.53;;
22579;SDS011;11456;47.030;15.396;2023-10-13T00:10:32;18.43;;;6.97;;
22579;SDS011;11456;47.030;15.396;2023-10-13T00:13:02;15.80;;;6.95;;
22579;SDS011;11456;47.030;15.396;2023-10-13T00:15:47;18.52;;;7.60;;
22579;SDS011;11456;47.030;15.396;2023-10-13T00:18:28;15.52;;;6.55;;
22579;SDS011;11456;47.030;15.396;2023-10-13T00:21:08;18.55;;;7.15;;
22579;SDS011;11456;47.030;15.396;2023-10-13T00:23:54;19.88;;;6.95;;
22579;SDS011;11456;47.030;15.396;2023-10-13T00:26:21;16.77;;;6.50;;
22579;SDS011;11456;47.030;15.396;2023-10-13T00:28:58;17.77;;;6.50;;
22579;SDS011;11456;47.030;15.396;2023-10-13T00:31:37;15.73;;;6.80;;
22579;SDS011;11456;47.030;15.396;2023-10-13T00:34:07;15.63;;;6.90;;
22579;SDS011;11456;47.030;15.396;2023-10-13T00:36:52;17.45;;;6.70;;
22579;SDS011;11456;47.030;15.396;2023-10-13T00:39:37;16.85;;;6.53;;
22579;SDS011;11456;47.030;15.396;2023-10-13T00:42:10;14.93;;;6.05;;
22579;SDS011;11456;47.030;15.396;2023-10-13T00:44:46;16.35;;;7.03;;
22579;SDS011;11456;47.030;15.396;2023-10-13T00:47:19;13.90;;;5.85;;
22579;SDS011;11456;47.030;15.396;2023-10-13T00:50:14;12.60;;;5.82;;
22579;SDS011;11456;47.030;15.396;2023-10-13T00:52:44;15.07;;;6.50;;
22579;SDS011;11456;47.030;15.396;2023-10-13T00:55:18;15.50;;;5.97;;
22579;SDS011;11456;47.030;15.396;2023-10-13T00:57:52;12.13;;;5.78;;
22579;SDS011;11456;47.030;15.396;2023-10-13T01:00:21;11.30;;;6.00;;
22579;SDS011;11456;47.030;15.396;2023-10-13T01:02:55;19.58;;;6.57;;
22579;SDS011;11456;47.030;15.396;2023-10-13T01:05:23;13.68;;;6.03;;
22579;SDS011;11456;47.030;15.396;2023-10-13T01:07:51;11.85;;;6.18;;
22579;SDS011;11456;47.030;15.396;2023-10-13T01:10:21;20.63;;;6.05;;
22579;SDS011;11456;47.030;15.396;2023-10-13T01:12:54;14.63;;;6.40;;
22579;SDS011;11456;47.030;15.396;2023-10-13T01:15:21;13.10;;;5.72;;
22579;SDS011;11456;47.030;15.396;2023-10-13T01:17:48;17.77;;;6.13;;
22579;SDS011;11456;47.030;15.396;2023-10-13T01:20:15;13.57;;;5.80;;
22579;SDS011;11456;47.030;15.396;2023-10-13T01:22:51;17.10;;;5.85;;
22579;SDS011;11456;47.030;15.396;2023-10-13T01:25:25;16.45;;;5.95;;
22579;SDS011;11456;47.030;15.396;2023-10-13T01:27:55;14.57;;;6.07;;
22579;SDS011;11456;47.030;15.396;2023-10-13T01:30:22;17.20;;;6.00;;
22579;SDS011;11456;47.030;15.396;2023-10-13T01:32:51;17.92;;;5.53;;
22579;SDS011;11456;47.030;15.396;2023-10-13T01:35:20;17.33;;;6.10;;
22579;SDS011;11456;47.030;15.396;2023-10-13T01:37:51;14.00;;;6.10;;
22579;SDS011;11456;47.030;15.396;2023-10-13T01:40:18;17.30;;;5.95;;
22579;SDS011;11456;47.030;15.396;2023-10-13T01:42:47;18.27;;;5.97;;
22579;SDS011;11456;47.030;15.396;2023-10-13T01:45:13;16.30;;;6.38;;
22579;SDS011;11456;47.030;15.396;2023-10-13T01:47:40;16.92;;;6.07;;
22579;SDS011;11456;47.030;15.396;2023-10-13T01:50:07;10.23;;;5.72;;
22579;SDS011;11456;47.030;15.396;2023-10-13T01:52:53;10.85;;;5.78;;
22579;SDS011;11456;47.030;15.396;2023-10-13T01:55:26;18.30;;;5.82;;
22579;SDS011;11456;47.030;15.396;2023-10-13T01:57:54;15.98;;;6.60;;
22579;SDS011;11456;47.030;15.396;2023-10-13T02:00:21;19.05;;;6.35;;
22579;SDS011;11456;47.030;15.396;2023-10-13T02:02:48;17.45;;;5.63;;
22579;SDS011;11456;47.030;15.396;2023-10-13T02:05:17;15.52;;;6.25;;
22579;SDS011;11456;47.030;15.396;2023-10-13T02:07:44;13.15;;;5.75;;
22579;SDS011;11456;47.030;15.396;2023-10-13T02:10:13;13.27;;;5.80;;
22579;SDS011;11456;47.030;15.396;2023-10-13T02:12:40;15.65;;;6.55;;
22579;SDS011;11456;47.030;15.396;2023-10-13T02:15:11;22.23;;;6.40;;
22579;SDS011;11456;47.030;15.396;2023-10-13T02:17:49;24.13;;;6.63;;
22579;SDS011;11456;47.030;15.396;2023-10-13T02:20:19;13.07;;;6.20;;
22579;SDS011;11456;47.030;15.396;2023-10-13T02:22:49;17.83;;;6.28;;
22579;SDS011;11456;47.030;15.396;2023-10-13T02:25:17;15.20;;;6.28;;
22579;SDS011;11456;47.030;15.396;2023-10-13T02:28:01;13.93;;;5.93;;
22579;SDS011;11456;47.030;15.396;2023-10-13T02:30:28;22.17;;;7.63;;
22579;SDS011;11456;47.030;15.396;2023-10-13T02:32:55;17.95;;;6.57;;
22579;SDS011;11456;47.030;15.396;2023-10-13T02:35:23;16.02;;;6.28;;
22579;SDS011;11456;47.030;15.396;2023-10-13T02:37:57;16.50;;;6.57;;
22579;SDS011;11456;47.030;15.396;2023-10-13T02:40:35;13.50;;;5.93;;
22579;SDS011;11456;47.030;15.396;2023-10-13T02:43:02;16.35;;;6.63;;
22579;SDS011;11456;47.030;15.396;2023-10-13T02:45:32;14.15;;;6.60;;
22579;SDS011;11456;47.030;15.396;2023-10-13T02:48:03;17.45;;;7.03;;
22579;SDS011;11456;47.030;15.396;2023-10-13T02:50:43;11.48;;;6.10;;
22579;SDS011;11456;47.030;15.396;2023-10-13T02:53:13;13.45;;;6.50;;
22579;SDS011;11456;47.030;15.396;2023-10-13T02:55:52;15.27;;;6.75;;
22579;SDS011;11456;47.030;15.396;2023-10-13T02:58:20;18.80;;;6.43;;
22579;SDS011;11456;47.030;15.396;2023-10-13T03:00:47;18.50;;;6.82;;
22579;SDS011;11456;47.030;15.396;2023-10-13T03:03:14;15.20;;;6.28;;
22579;SDS011;11456;47.030;15.396;2023-10-13T03:05:45;10.93;;;5.63;;
22579;SDS011;11456;47.030;15.396;2023-10-13T03:08:12;15.75;;;6.80;;
22579;SDS011;11456;47.030;15.396;2023-10-13T03:10:44;19.83;;;7.43;;
22579;SDS011;11456;47.030;15.396;2023-10-13T03:15:44;15.38;;;6.97;;
22579;SDS011;11456;47.030;15.396;2023-10-13T03:18:14;17.88;;;7.82;;
22579;SDS011;11456;47.030;15.396;2023-10-13T03:20:45;18.63;;;6.72;;
22579;SDS011;11456;47.030;15.396;2023-10-13T03:23:16;18.48;;;6.78;;
22579;SDS011;11456;47.030;15.396;2023-10-13T03:25:43;19.60;;;6.97;;
22579;SDS011;11456;47.030;15.396;2023-10-13T03:28:10;15.13;;;6.65;;
22579;SDS011;11456;47.030;15.396;2023-10-13T03:30:43;15.70;;;6.70;;
22579;SDS011;11456;47.030;15.396;2023-10-13T03:33:10;26.13;;;7.53;;
22579;SDS011;11456;47.030;15.396;2023-10-13T03:35:41;19.42;;;6.47;;
22579;SDS011;11456;47.030;15.396;2023-10-13T03:38:09;16.17;;;6.75;;
22579;SDS011;11456;47.030;15.396;2023-10-13T03:40:50;23.77;;;7.15;;
22579;SDS011;11456;47.030;15.396;2023-10-13T03:43:36;21.23;;;7.00;;
22579;SDS011;11456;47.030;15.396;2023-10-13T03:46:12;17.77;;;6.88;;
22579;SDS011;11456;47.030;15.396;2023-10-13T03:48:39;16.42;;;5.95;;
22579;SDS011;11456;47.030;15.396;2023-10-13T03:51:19;15.45;;;6.40;;
22579;SDS011;11456;47.030;15.396;2023-10-13T03:53:46;18.73;;;6.53;;
22579;SDS011;11456;47.030;15.396;2023-10-13T03:58:57;16.08;;;6.72;;
22579;SDS011;11456;47.030;15.396;2023-10-13T04:01:33;19.90;;;7.43;;
22579;SDS011;11456;47.030;15.396;2023-10-13T04:04:10;18.38;;;6.93;;
22579;SDS011;11456;47.030;15.396;2023-10-13T04:06:57;24.10;;;7.30;;
22579;SDS011;11456;47.030;15.396;2023-10-13T04:09:47;17.75;;;6.50;;
22579;SDS011;11456;47.030;15.396;2023-10-13T04:12:14;18.73;;;6.15;;
22579;SDS011;11456;47.030;15.396;2023-10-13T04:17:31;14.20;;;6.55;;
22579;SDS011;11456;47.030;15.396;2023-10-13T04:20:07;20.27;;;7.93;;
22579;SDS011;11456;47.030;15.396;2023-10-13T04:22:35;24.52;;;8.20;;
22579;SDS011;11456;47.030;15.396;2023-10-13T04:27:58;21.23;;;7.68;;
22579;SDS011;11456;47.030;15.396;2023-10-13T04:30:45;24.70;;;7.90;;
22579;SDS011;11456;47.030;15.396;2023-10-13T04:36:03;16.92;;;7.53;;
22579;SDS011;11456;47.030;15.396;2023-10-13T04:38:50;21.20;;;7.65;;
22579;SDS011;11456;47.030;15.396;2023-10-13T04:41:39;14.82;;;7.07;;
22579;SDS011;11456;47.030;15.396;2023-10-13T04:46:59;20.58;;;7.50;;
22579;SDS011;11456;47.030;15.396;2023-10-13T04:49:27;21.80;;;7.60;;
22579;SDS011;11456;47.030;15.396;2023-10-13T04:51:56;22.45;;;10.10;;
22579;SDS011;11456;47.030;15.396;2023-10-13T04:57:16;17.75;;;8.35;;
22579;SDS011;11456;47.030;15.396;2023-10-13T05:00:05;20.77;;;7.32;;
22579;SDS011;11456;47.030;15.396;2023-10-13T05:02:39;21.45;;;6.78;;
22579;SDS011;11456;47.030;15.396;2023-10-13T05:07:41;24.40;;;6.45;;
22579;SDS011;11456;47.030;15.396;2023-10-13T05:10:27;23.42;;;7.10;;
22579;SDS011;11456;47.030;15.396;2023-10-13T05:13:13;14.07;;;7.03;;
22579;SDS011;11456;47.030;15.396;2023-10-13T05:15:58;19.20;;;7.18;;
22579;SDS011;11456;47.030;15.396;2023-10-13T05:18:44;21.10;;;7.53;;
22579;SDS011;11456;47.030;15.396;2023-10-13T05:21:29;25.08;;;8.43;;
22579;SDS011;11456;47.030;15.396;2023-10-13T05:24:15;20.55;;;8.32;;
22579;SDS011;11456;47.030;15.396;2023-10-13T05:27:00;25.23;;;9.68;;
22579;SDS011;11456;47.030;15.396;2023-10-13T05:29:46;25.92;;;8.95;;
22579;SDS011;11456;47.030;15.396;2023-10-13T05:32:32;43.38;;;9.10;;
22579;SDS011;11456;47.030;15.396;2023-10-13T05:35:21;37.97;;;9.43;;
22579;SDS011;11456;47.030;15.396;2023-10-13T05:38:07;20.25;;;7.85;;
22579;SDS011;11456;47.030;15.396;2023-10-13T05:40:59;28.38;;;8.65;;
22579;SDS011;11456;47.030;15.396;2023-10-13T05:43:51;23.27;;;8.43;;
22579;SDS011;11456;47.030;15.396;2023-10-13T05:46:37;22.55;;;7.60;;
22579;SDS011;11456;47.030;15.396;2023-10-13T05:49:05;21.15;;;8.10;;
22579;SDS011;11456;47.030;15.396;2023-10-13T05:51:36;17.33;;;7.00;;
22579;SDS011;11456;47.030;15.396;2023-10-13T05:54:03;19.42;;;7.93;;
22579;SDS011;11456;47.030;15.396;2023-10-13T05:59:31;33.03;;;9.75;;
22579;SDS011;11456;47.030;15.396;2023-10-13T06:02:18;22.08;;;8.63;;
22579;SDS011;11456;47.030;15.396;2023-10-13T06:05:04;24.27;;;8.45;;
22579;SDS011;11456;47.030;15.396;2023-10-13T06:07:51;20.02;;;8.40;;
22579;SDS011;11456;47.030;15.396;2023-10-13T06:10:37;29.20;;;8.35;;
22579;SDS011;11456;47.030;15.396;2023-10-13T06:13:23;36.95;;;9.10;;
22579;SDS011;11456;47.030;15.396;2023-10-13T06:16:09;35.08;;;8.88;;
22579;SDS011;11456;47.030;15.396;2023-10-13T06:18:56;32.15;;;8.32;;
22579;SDS011;11456;47.030;15.396;2023-10-13T06:21:42;24.60;;;8.38;;
22579;SDS011;11456;47.030;15.396;2023-10-13T06:24:27;18.88;;;7.68;;
22579;SDS011;11456;47.030;15.396;2023-10-13T06:27:16;25.90;;;7.75;;
22579;SDS011;11456;47.030;15.396;2023-10-13T06:30:02;23.10;;;8.68;;
22579;SDS011;11456;47.030;15.396;2023-10-13T06:32:32;22.10;;;8.60;;
22579;SDS011;11456;47.030;15.396;2023-10-13T06:34:59;23.95;;;8.00;;
22579;SDS011;11456;47.030;15.396;2023-10-13T06:37:45;28.00;;;8.63;;
22579;SDS011;11456;47.030;15.396;2023-10-13T06:40:12;21.17;;;8.13;;
22579;SDS011;11456;47.030;15.396;2023-10-13T06:42:57;33.35;;;8.55;;
22579;SDS011;11456;47.030;15.396;2023-10-13T06:45:44;24.38;;;7.93;;
22579;SDS011;11456;47.030;15.396;2023-10-13T06:48:28;17.67;;;7.55;;
22579;SDS011;11456;47.030;15.396;2023-10-13T06:51:00;27.65;;;8.18;;
22579;SDS011;11456;47.030;15.396;2023-10-13T06:53:31;24.75;;;7.50;;
22579;SDS011;11456;47.030;15.396;2023-10-13T06:56:06;22.02;;;7.32;;
22579;SDS011;11456;47.030;15.396;2023-10-13T06:58:33;20.52;;;7.88;;
22579;SDS011;11456;47.030;15.396;2023-10-13T07:01:00;24.92;;;8.15;;
22579;SDS011;11456;47.030;15.396;2023-10-13T07:03:28;21.55;;;7.60;;
22579;SDS011;11456;47.030;15.396;2023-10-13T07:05:54;21.75;;;7.53;;
22579;SDS011;11456;47.030;15.396;2023-10-13T07:08:25;18.10;;;7.00;;
22579;SDS011;11456;47.030;15.396;2023-10-13T07:10:55;21.40;;;7.13;;
22579;SDS011;11456;47.030;15.396;2023-10-13T07:13:29;21.35;;;7.95;;
22579;SDS011;11456;47.030;15.396;2023-10-13T07:15:56;30.63;;;8.20;;
22579;SDS011;11456;47.030;15.396;2023-10-13T07:18:39;23.30;;;8.55;;
22579;SDS011;11456;47.030;15.396;2023-10-13T07:21:21;22.40;;;8.03;;
22579;SDS011;11456;47.030;15.396;2023-10-13T07:23:58;25.10;;;8.50;;
22579;SDS011;11456;47.030;15.396;2023-10-13T07:26:35;23.80;;;8.38;;
22579;SDS011;11456;47.030;15.396;2023-10-13T07:29:09;28.05;;;8.40;;
22579;SDS011;11456;47.030;15.396;2023-10-13T07:31:36;29.02;;;7.93;;
22579;SDS011;11456;47.030;15.396;2023-10-13T07:34:05;22.10;;;7.90;;
22579;SDS011;11456;47.030;15.396;2023-10-13T07:36:36;18.27;;;7.65;;
22579;SDS011;11456;47.030;15.396;2023-10-13T07:39:06;23.52;;;8.23;;
22579;SDS011;11456;47.030;15.396;2023-10-13T07:41:50;19.73;;;8.48;;
22579;SDS011;11456;47.030;15.396;2023-10-13T07:44:23;23.95;;;7.45;;
22579;SDS011;11456;47.030;15.396;2023-10-13T07:46:58;20.23;;;7.70;;
22579;SDS011;11456;47.030;15.396;2023-10-13T07:49:27;24.23;;;8.27;;
22579;SDS011;11456;47.030;15.396;2023-10-13T07:54:27;24.58;;;8.20;;
22579;SDS011;11456;47.030;15.396;2023-10-13T07:56:54;21.45;;;7.70;;
22579;SDS011;11456;47.030;15.396;2023-10-13T07:59:21;33.72;;;8.88;;
22579;SDS011;11456;47.030;15.396;2023-10-13T08:01:49;22.95;;;7.97;;
22579;SDS011;11456;47.030;15.396;2023-10-13T08:04:36;19.20;;;7.22;;
22579;SDS011;11456;47.030;15.396;2023-10-13T08:07:03;21.88;;;7.40;;
22579;SDS011;11456;47.030;15.396;2023-10-13T08:09:40;18.80;;;7.18;;
22579;SDS011;11456;47.030;15.396;2023-10-13T08:12:07;26.50;;;8.15;;
22579;SDS011;11456;47.030;15.396;2023-10-13T08:14:38;22.58;;;7.93;;
22579;SDS011;11456;47.030;15.396;2023-10-13T08:17:07;31.83;;;7.93;;
22579;SDS011;11456;47.030;15.396;2023-10-13T08:19:36;36.40;;;8.82;;
22579;SDS011;11456;47.030;15.396;2023-10-13T08:22:12;33.80;;;8.98;;
22579;SDS011;11456;47.030;15.396;2023-10-13T08:24:49;26.98;;;8.77;;
22579;SDS011;11456;47.030;15.396;2023-10-13T08:27:20;34.67;;;9.55;;
22579;SDS011;11456;47.030;15.396;2023-10-13T08:30:02;54.05;;;9.98;;
22579;SDS011;11456;47.030;15.396;2023-10-13T08:32:52;34.05;;;9.18;;
22579;SDS011;11456;47.030;15.396;2023-10-13T08:35:26;28.38;;;7.72;;
22579;SDS011;11456;47.030;15.396;2023-10-13T08:37:56;36.28;;;8.40;;
22579;SDS011;11456;47.030;15.396;2023-10-13T08:40:36;25.05;;;8.20;;
22579;SDS011;11456;47.030;15.396;2023-10-13T08:43:31;45.53;;;8.38;;
22579;SDS011;11456;47.030;15.396;2023-10-13T08:46:19;47.65;;;8.20;;
22579;SDS011;11456;47.030;15.396;2023-10-13T08:48:56;37.17;;;6.95;;
22579;SDS011;11456;47.030;15.396;2023-10-13T08:51:50;43.35;;;8.05;;
22579;SDS011;11456;47.030;15.396;2023-10-13T08:54:32;40.67;;;8.25;;
22579;SDS011;11456;47.030;15.396;2023-10-13T08:57:05;32.78;;;6.93;;
22579;SDS011;11456;47.030;15.396;2023-10-13T08:59:52;30.08;;;7.53;;
22579;SDS011;11456;47.030;15.396;2023-10-13T09:02:22;32.58;;;7.53;;
22579;SDS011;11456;47.030;15.396;2023-10-13T09:05:09;29.08;;;6.45;;
22579;SDS011;11456;47.030;15.396;2023-10-13T09:07:56;38.05;;;7.03;;
22579;SDS011;11456;47.030;15.396;2023-10-13T09:10:35;28.00;;;6.75;;
22579;SDS011;11456;47.030;15.396;2023-10-13T09:13:11;30.25;;;6.60;;
22579;SDS011;11456;47.030;15.396;2023-10-13T09:15:45;30.17;;;6.72;;
22579;SDS011;11456;47.030;15.396;2023-10-13T09:18:28;28.75;;;7.47;;
22579;SDS011;11456;47.030;15.396;2023-10-13T09:21:16;36.63;;;6.93;;
22579;SDS011;11456;47.030;15.396;2023-10-13T09:24:01;31.60;;;6.55;;
22579;SDS011;11456;47.030;15.396;2023-10-13T09:26:58;31.25;;;6.95;;
22579;SDS011;11456;47.030;15.396;2023-10-13T09:29:28;32.30;;;6.85;;
22579;SDS011;11456;47.030;15.396;2023-10-13T09:31:59;34.58;;;6.97;;
22579;SDS011;11456;47.030;15.396;2023-10-13T09:34:31;27.08;;;6.45;;
22579;SDS011;11456;47.030;15.396;2023-10-13T09:37:07;29.90;;;6.20;;
22579;SDS011;11456;47.030;15.396;2023-10-13T09:39:37;29.25;;;6.85;;
22579;SDS011;11456;47.030;15.396;2023-10-13T09:42:27;30.13;;;6.55;;
22579;SDS011;11456;47.030;15.396;2023-10-13T09:44:54;37.10;;;6.57;;
22579;SDS011;11456;47.030;15.396;2023-10-13T09:47:30;23.10;;;6.07;;
22579;SDS011;11456;47.030;15.396;2023-10-13T09:50:04;33.00;;;6.15;;
22579;SDS011;11456;47.030;15.396;2023-10-13T09:52:40;32.72;;;7.05;;
22579;SDS011;11456;47.030;15.396;2023-10-13T09:55:29;37.00;;;6.53;;
22579;SDS011;11456;47.030;15.396;2023-10-13T09:58:10;33.90;;;6.70;;
22579;SDS011;11456;47.030;15.396;2023-10-13T10:00:50;25.10;;;6.30;;
22579;SDS011;11456;47.030;15.396;2023-10-13T10:03:44;33.45;;;6.90;;
22579;SDS011;11456;47.030;15.396;2023-10-13T10:06:22;35.88;;;6.28;;
22579;SDS011;11456;47.030;15.396;2023-10-13T10:09:04;23.58;;;6.15;;
22579;SDS011;11456;47.030;15.396;2023-10-13T10:12:41;19.10;;;5.40;;
22579;SDS011;11456;47.030;15.396;2023-10-13T10:15:06;27.40;;;6.03;;
22579;SDS011;11456;47.030;15.396;2023-10-13T10:17:55;25.63;;;5.90;;
22579;SDS011;11456;47.030;15.396;2023-10-13T10:20:29;28.65;;;6.40;;
22579;SDS011;11456;47.030;15.396;2023-10-13T10:23:08;23.67;;;5.65;;
22579;SDS011;11456;47.030;15.396;2023-10-13T10:25:48;28.15;;;5.50;;
22579;SDS011;11456;47.030;15.396;2023-10-13T10:28:18;36.15;;;5.10;;
22579;SDS011;11456;47.030;15.396;2023-10-13T10:30:46;22.48;;;5.55;;
22579;SDS011;11456;47.030;15.396;2023-10-13T10:33:13;18.73;;;5.35;;
22579;SDS011;11456;47.030;15.396;2023-10-13T10:35:42;153.68;;;11.02;;
22579;SDS011;11456;47.030;15.396;2023-10-13T10:46:11;33.65;;;5.78;;
22579;SDS011;11456;47.030;15.396;2023-10-13T10:48:47;47.53;;;6.68;;
22579;SDS011;11456;47.030;15.396;2023-10-13T10:51:14;29.27;;;5.38;;
22579;SDS011;11456;47.030;15.396;2023-10-13T10:53:51;24.27;;;5.03;;
22579;SDS011;11456;47.030;15.396;2023-10-13T10:56:23;26.23;;;5.78;;
22579;SDS011;11456;47.030;15.396;2023-10-13T10:59:04;34.60;;;4.88;;
22579;SDS011;11456;47.030;15.396;2023-10-13T11:01:42;21.42;;;4.10;;
22579;SDS011;11456;47.030;15.396;2023-10-13T11:04:14;12.98;;;4.60;;
22579;SDS011;11456;47.030;15.396;2023-10-13T11:06:46;24.30;;;4.30;;
22579;SDS011;11456;47.030;15.396;2023-10-13T11:09:14;19.17;;;4.75;;
22579;SDS011;11456;47.030;15.396;2023-10-13T11:14:41;19.98;;;4.00;;
22579;SDS011;11456;47.030;15.396;2023-10-13T11:17:09;18.27;;;3.88;;
22579;SDS011;11456;47.030;15.396;2023-10-13T11:19:45;19.85;;;4.15;;
22579;SDS011;11456;47.030;15.396;2023-10-13T11:22:13;16.95;;;4.70;;
22579;SDS011;11456;47.030;15.396;2023-10-13T11:24:56;16.00;;;4.10;;
22579;SDS011;11456;47.030;15.396;2023-10-13T11:27:29;13.73;;;4.68;;
22579;SDS011;11456;47.030;15.396;2023-10-13T11:30:19;15.57;;;4.07;;
22579;SDS011;11456;47.030;15.396;2023-10-13T11:32:58;18.42;;;4.30;;
22579;SDS011;11456;47.030;15.396;2023-10-13T11:35:35;11.77;;;4.05;;
22579;SDS011;11456;47.030;15.396;2023-10-13T11:41:11;26.33;;;4.32;;
22579;SDS011;11456;47.030;15.396;2023-10-13T11:43:39;12.95;;;4.03;;
22579;SDS011;11456;47.030;15.396;2023-10-13T11:46:10;33.65;;;5.57;;
22579;SDS011;11456;47.030;15.396;2023-10-13T11:48:42;14.13;;;4.43;;
22579;SDS011;11456;47.030;15.396;2023-10-13T11:51:11;22.98;;;4.57;;
22579;SDS011;11456;47.030;15.396;2023-10-13T11:53:50;22.20;;;4.40;;
22579;SDS011;11456;47.030;15.396;2023-10-13T11:56:22;14.13;;;4.00;;
22579;SDS011;11456;47.030;15.396;2023-10-13T11:58:48;16.50;;;4.43;;
22579;SDS011;11456;47.030;15.396;2023-10-13T12:01:16;18.33;;;4.45;;
22579;SDS011;11456;47.030;15.396;2023-10-13T12:03:48;18.08;;;4.28;;
22579;SDS011;11456;47.030;15.396;2023-10-13T12:06:34;18.27;;;4.20;;
22579;SDS011;11456;47.030;15.396;2023-10-13T12:09:02;8.30;;;3.85;;
22579;SDS011;11456;47.030;15.396;2023-10-13T12:11:47;19.55;;;4.53;;
22579;SDS011;11456;47.030;15.396;2023-10-13T12:14:21;20.38;;;4.60;;
22579;SDS011;11456;47.030;15.396;2023-10-13T12:16:54;14.50;;;4.40;;
22579;SDS011;11456;47.030;15.396;2023-10-13T12:19:23;18.92;;;4.78;;
22579;SDS011;11456;47.030;15.396;2023-10-13T12:21:51;14.55;;;3.63;;
22579;SDS011;11456;47.030;15.396;2023-10-13T12:24:24;20.80;;;4.60;;
22579;SDS011;11456;47.030;15.396;2023-10-13T12:27:02;18.80;;;4.57;;
22579;SDS011;11456;47.030;15.396;2023-10-13T12:29:51;16.45;;;4.32;;
22579;SDS011;11456;47.030;15.396;2023-10-13T12:32:19;17.13;;;4.22;;
22579;SDS011;11456;47.030;15.396;2023-10-13T12:37:43;16.43;;;4.60;;
22579;SDS011;11456;47.030;15.396;2023-10-13T12:40:13;18.98;;;4.20;;
22579;SDS011;11456;47.030;15.396;2023-10-13T12:43:00;14.73;;;4.28;;
22579;SDS011;11456;47.030;15.396;2023-10-13T12:45:46;21.23;;;4.53;;
22579;SDS011;11456;47.030;15.396;2023-10-13T12:48:32;13.23;;;4.47;;
22579;SDS011;11456;47.030;15.396;2023-10-13T12:51:18;14.50;;;3.92;;
22579;SDS011;11456;47.030;15.396;2023-10-13T12:53:49;21.20;;;4.25;;
22579;SDS011;11456;47.030;15.396;2023-10-13T12:56:18;18.52;;;4.90;;
22579;SDS011;11456;47.030;15.396;2023-10-13T12:58:52;23.00;;;4.93;;
22579;SDS011;11456;47.030;15.396;2023-10-13T13:01:21;14.07;;;3.75;;
22579;SDS011;11456;47.030;15.396;2023-10-13T13:03:49;14.90;;;4.20;;
22579;SDS011;11456;47.030;15.396;2023-10-13T13:06:20;11.50;;;3.70;;
22579;SDS011;11456;47.030;15.396;2023-10-13T13:08:56;17.23;;;4.25;;
22579;SDS011;11456;47.030;15.396;2023-10-13T13:11:25;17.13;;;4.32;;
22579;SDS011;11456;47.030;15.396;2023-10-13T13:13:54;12.70;;;3.97;;
22579;SDS011;11456;47.030;15.396;2023-10-13T13:16:21;17.30;;;4.13;;
22579;SDS011;11456;47.030;15.396;2023-10-13T13:18:51;29.40;;;4.97;;
22579;SDS011;11456;47.030;15.396;2023-10-13T13:21:19;15.05;;;4.53;;
22579;SDS011;11456;47.030;15.396;2023-10-13T13:23:49;20.58;;;4.10;;
22579;SDS011;11456;47.030;15.396;2023-10-13T13:26:16;21.20;;;4.70;;
22579;SDS011;11456;47.030;15.396;2023-10-13T13:28:44;12.13;;;4.45;;
22579;SDS011;11456;47.030;15.396;2023-10-13T13:31:17;18.45;;;4.25;;
22579;SDS011;11456;47.030;15.396;2023-10-13T13:33:44;11.88;;;4.25;;
22579;SDS011;11456;47.030;15.396;2023-10-13T13:36:10;16.30;;;4.13;;
22579;SDS011;11456;47.030;15.396;2023-10-13T13:38:43;16.35;;;4.63;;
22579;SDS011;11456;47.030;15.396;2023-10-13T13:41:15;16.17;;;4.63;;
22579;SDS011;11456;47.030;15.396;2023-10-13T13:46:16;14.35;;;4.50;;
22579;SDS011;11456;47.030;15.396;2023-10-13T13:48:43;13.68;;;4.28;;
22579;SDS011;11456;47.030;15.396;2023-10-13T13:51:14;13.70;;;3.80;;
22579;SDS011;11456;47.030;15.396;2023-10-13T13:53:41;12.77;;;3.92;;
22579;SDS011;11456;47.030;15.396;2023-10-13T13:56:12;19.13;;;4.22;;
22579;SDS011;11456;47.030;15.396;2023-10-13T13:58:43;18.63;;;4.22;;
22579;SDS011;11456;47.030;15.396;2023-10-13T14:01:14;14.77;;;4.10;;
22579;SDS011;11456;47.030;15.396;2023-10-13T14:03:42;10.57;;;3.90;;
22579;SDS011;11456;47.030;15.396;2023-10-13T14:08:50;15.55;;;4.05;;
22579;SDS011;11456;47.030;15.396;2023-10-13T14:11:21;14.27;;;3.97;;
22579;SDS011;11456;47.030;15.396;2023-10-13T14:14:13;17.70;;;4.18;;
22579;SDS011;11456;47.030;15.396;2023-10-13T14:16:54;13.52;;;3.97;;
22579;SDS011;11456;47.030;15.396;2023-10-13T14:19:34;19.70;;;4.32;;
22579;SDS011;11456;47.030;15.396;2023-10-13T14:22:06;19.92;;;4.50;;
22579;SDS011;11456;47.030;15.396;2023-10-13T14:24:34;10.50;;;4.00;;
22579;SDS011;11456;47.030;15.396;2023-10-13T14:27:02;17.92;;;4.40;;
22579;SDS011;11456;47.030;15.396;2023-10-13T14:29:38;22.33;;;4.47;;
22579;SDS011;11456;47.030;15.396;2023-10-13T14:32:12;14.27;;;4.07;;
22579;SDS011;11456;47.030;15.396;2023-10-13T14:34:42;16.58;;;4.10;;
22579;SDS011;11456;47.030;15.396;2023-10-13T14:37:10;12.75;;;4.60;;
22579;SDS011;11456;47.030;15.396;2023-10-13T14:39:40;14.38;;;4.13;;
22579;SDS011;11456;47.030;15.396;2023-10-13T14:42:08;20.23;;;4.90;;
22579;SDS011;11456;47.030;15.396;2023-10-13T14:44:34;17.63;;;4.40;;
22579;SDS011;11456;47.030;15.396;2023-10-13T14:47:01;18.50;;;4.43;;
22579;SDS011;11456;47.030;15.396;2023-10-13T14:49:28;22.10;;;4.22;;
22579;SDS011;11456;47.030;15.396;2023-10-13T14:51:55;18.25;;;4.45;;
22579;SDS011;11456;47.030;15.396;2023-10-13T14:54:22;15.98;;;4.45;;
22579;SDS011;11456;47.030;15.396;2023-10-13T14:57:09;20.23;;;4.38;;
22579;SDS011;11456;47.030;15.396;2023-10-13T14:59:36;14.65;;;4.57;;
22579;SDS011;11456;47.030;15.396;2023-10-13T15:02:05;16.92;;;4.20;;
22579;SDS011;11456;47.030;15.396;2023-10-13T15:04:33;14.20;;;4.78;;
22579;SDS011;11456;47.030;15.396;2023-10-13T15:07:01;16.27;;;3.97;;
22579;SDS011;11456;47.030;15.396;2023-10-13T15:09:28;17.98;;;4.28;;
22579;SDS011;11456;47.030;15.396;2023-10-13T15:11:55;17.73;;;4.60;;
22579;SDS011;11456;47.030;15.396;2023-10-13T15:14:22;16.30;;;4.45;;
22579;SDS011;11456;47.030;15.396;2023-10-13T15:16:51;18.48;;;4.90;;
22579;SDS011;11456;47.030;15.396;2023-10-13T15:19:19;16.17;;;4.47;;
22579;SDS011;11456;47.030;15.396;2023-10-13T15:21:45;14.93;;;4.30;;
22579;SDS011;11456;47.030;15.396;2023-10-13T15:24:17;19.02;;;4.55;;
22579;SDS011;11456;47.030;15.396;2023-10-13T15:26:52;13.07;;;4.25;;
22579;SDS011;11456;47.030;15.396;2023-10-13T15:29:27;17.40;;;5.03;;
22579;SDS011;11456;47.030;15.396;2023-10-13T15:32:02;18.10;;;4.88;;
22579;SDS011;11456;47.030;15.396;2023-10-13T15:34:29;16.92;;;4.80;;
22579;SDS011;11456;47.030;15.396;2023-10-13T15:36:57;20.70;;;4.82;;
22579;SDS011;11456;47.030;15.396;2023-10-13T15:39:25;29.35;;;5.45;;
22579;SDS011;11456;47.030;15.396;2023-10-13T15:41:55;18.08;;;4.78;;
22579;SDS011;11456;47.030;15.396;2023-10-13T15:44:26;15.55;;;5.22;;
22579;SDS011;11456;47.030;15.396;2023-10-13T15:46:56;29.92;;;6.05;;
22579;SDS011;11456;47.030;15.396;2023-10-13T15:49:28;22.75;;;5.03;;
22579;SDS011;11456;47.030;15.396;2023-10-13T15:51:56;19.95;;;6.38;;